GMFK

Moulay Ali Cherif Airport

Errachidia, Morocco
METAR GMFK 232300Z 25003KT CAVOK 11/M04 Q1030 NOSIG
Observed Flight Rules
Jan-23 @ 23:00 UTC (28 minutes ago) Visual Flight Rules
Wind Visibility Clouds
250° at 3 knots 10,000+ meters
  • Clear skies
Temperatures Readings
Current 11°C / 52°F
Dewpoint -4°C / 25°F
Humidity 35%
Altimeter 30.41" Hg
Pressure 1030 hPa
Elevation 1045
METAR GMFK 232300Z 25003KT CAVOK 11/M04 Q1030 NOSIG
Observed Flight Rules
Jan-23 @ 23:00 UTC
(28 minutes ago)
VFR
Wind Visibility
250° at 3 knots 10,000+ meters
Clouds
  • Clear skies
Temperature Dewpoint
11°C / 52°F -4°C / 25°F
Humidity Altimeter Pressure
35% 30.41" Hg 1030 hPa